createdAt,value
2018-12-31T00:01:50.978Z,1.53
2018-12-31T00:04:18.198Z,2.60
2018-12-31T00:06:45.420Z,2.50
2018-12-31T00:09:12.656Z,2.97
2018-12-31T00:11:39.862Z,1.80
2018-12-31T00:14:07.101Z,3.13
2018-12-31T00:16:34.287Z,1.77
2018-12-31T00:19:01.520Z,1.67
2018-12-31T00:21:28.732Z,3.93
2018-12-31T00:23:55.974Z,2.30
2018-12-31T00:26:23.175Z,3.50
2018-12-31T00:28:50.466Z,2.70
2018-12-31T00:31:17.694Z,2.33
2018-12-31T00:33:44.969Z,3.50
2018-12-31T00:36:12.167Z,2.00
2018-12-31T00:38:58.913Z,4.40
2018-12-31T00:41:26.136Z,2.53
2018-12-31T00:43:53.351Z,5.67
2018-12-31T00:46:20.611Z,3.17
2018-12-31T00:48:47.793Z,4.50
2018-12-31T00:51:15.023Z,1.27
2018-12-31T00:53:42.228Z,2.90
2018-12-31T00:56:09.436Z,3.27
2018-12-31T00:58:44.118Z,3.00
2018-12-31T01:01:11.312Z,2.87
2018-12-31T01:03:38.509Z,1.40
2018-12-31T01:06:05.699Z,2.07
2018-12-31T01:08:32.959Z,2.43
2018-12-31T01:11:00.156Z,2.20
2018-12-31T01:13:27.359Z,2.20
2018-12-31T01:15:54.564Z,1.87
2018-12-31T01:18:21.761Z,3.13
2018-12-31T01:20:48.970Z,1.53
2018-12-31T01:23:16.173Z,3.30
2018-12-31T01:25:43.417Z,1.67
2018-12-31T01:28:10.706Z,2.40
2018-12-31T01:30:37.898Z,1.53
2018-12-31T01:33:05.070Z,2.90
2018-12-31T01:35:32.412Z,1.37
2018-12-31T01:37:59.618Z,2.00
2018-12-31T01:40:26.838Z,2.00
2018-12-31T01:42:54.064Z,1.90
2018-12-31T01:45:21.250Z,1.90
2018-12-31T01:47:48.507Z,2.50
2018-12-31T01:50:15.727Z,1.97
2018-12-31T01:52:42.984Z,2.70
2018-12-31T01:55:10.232Z,1.40
2018-12-31T01:57:37.440Z,3.73
2018-12-31T02:00:05.411Z,2.30
2018-12-31T02:02:32.628Z,1.23
2018-12-31T02:04:59.831Z,2.50
2018-12-31T02:07:27.099Z,2.70
2018-12-31T02:09:54.296Z,2.10
2018-12-31T02:12:21.480Z,1.70
2018-12-31T02:14:48.714Z,1.90
2018-12-31T02:17:15.926Z,3.90
2018-12-31T02:19:43.125Z,2.43
2018-12-31T02:22:10.322Z,2.40
2018-12-31T02:24:37.504Z,1.97
2018-12-31T02:27:04.740Z,3.80
2018-12-31T02:29:31.916Z,1.93
2018-12-31T02:31:59.145Z,3.37
2018-12-31T02:34:26.327Z,1.70
2018-12-31T02:36:53.584Z,2.10
2018-12-31T02:39:20.838Z,3.13
2018-12-31T02:41:48.004Z,2.47
2018-12-31T02:44:15.251Z,1.70
2018-12-31T02:46:42.469Z,1.90
2018-12-31T02:49:09.657Z,3.20
2018-12-31T02:51:36.851Z,2.70
2018-12-31T02:54:04.071Z,2.47
2018-12-31T02:56:31.235Z,2.60
2018-12-31T02:58:58.459Z,2.50
2018-12-31T03:01:25.626Z,2.60
2018-12-31T03:03:52.857Z,3.10
2018-12-31T03:06:20.054Z,1.40
2018-12-31T03:08:47.276Z,1.40
2018-12-31T03:11:14.512Z,2.40
2018-12-31T03:13:41.672Z,1.73
2018-12-31T03:16:08.907Z,2.57
2018-12-31T03:18:36.206Z,2.60
2018-12-31T03:21:03.456Z,2.43
2018-12-31T03:23:30.661Z,1.13
2018-12-31T03:25:57.902Z,1.50
2018-12-31T03:28:25.266Z,2.27
2018-12-31T03:30:52.521Z,2.20
2018-12-31T03:33:19.859Z,2.70
2018-12-31T03:35:47.067Z,2.13
2018-12-31T03:38:14.377Z,1.43
2018-12-31T03:40:41.653Z,1.53
2018-12-31T03:43:08.831Z,1.67
2018-12-31T03:45:36.035Z,1.33
2018-12-31T03:48:03.233Z,1.67
2018-12-31T03:50:30.487Z,2.20
2018-12-31T03:52:57.665Z,2.07
2018-12-31T03:55:24.878Z,1.83
2018-12-31T03:57:52.087Z,2.93
2018-12-31T04:00:19.293Z,1.43
2018-12-31T04:02:47.073Z,1.63
2018-12-31T04:05:14.415Z,2.10
2018-12-31T04:07:41.666Z,2.50
2018-12-31T04:10:08.858Z,2.80
2018-12-31T04:12:36.088Z,1.90
2018-12-31T04:15:03.286Z,1.30
2018-12-31T04:17:30.870Z,1.50
2018-12-31T04:19:58.110Z,2.10
2018-12-31T04:22:25.297Z,1.97
2018-12-31T04:24:52.530Z,1.53
2018-12-31T04:27:19.722Z,1.43
2018-12-31T04:29:46.965Z,1.80
2018-12-31T04:32:14.122Z,1.30
2018-12-31T04:34:41.290Z,1.90
2018-12-31T04:37:08.491Z,1.17
2018-12-31T04:39:35.710Z,1.70
2018-12-31T04:42:02.975Z,1.00
2018-12-31T04:44:30.136Z,1.67
2018-12-31T04:46:57.321Z,2.23
2018-12-31T04:49:24.485Z,1.77
2018-12-31T04:51:51.700Z,1.63
2018-12-31T04:54:18.895Z,1.10
2018-12-31T04:56:46.108Z,1.60
2018-12-31T04:59:13.351Z,1.50
2018-12-31T05:01:40.541Z,1.17
2018-12-31T05:04:07.723Z,1.30
2018-12-31T05:06:34.905Z,1.53
2018-12-31T05:09:02.358Z,1.73
2018-12-31T05:11:29.577Z,1.30
2018-12-31T05:13:56.760Z,2.07
2018-12-31T05:16:24.012Z,1.57
2018-12-31T05:18:51.244Z,1.63
2018-12-31T05:21:18.560Z,1.70
2018-12-31T05:23:45.848Z,1.30
2018-12-31T05:26:13.018Z,1.53
2018-12-31T05:28:40.229Z,1.80
2018-12-31T05:31:07.495Z,1.70
2018-12-31T05:33:34.706Z,1.30
2018-12-31T05:36:02.030Z,1.60
2018-12-31T05:38:29.229Z,1.70
2018-12-31T05:40:56.472Z,1.40
2018-12-31T05:43:23.689Z,1.20
2018-12-31T05:45:50.870Z,1.47
2018-12-31T05:48:18.097Z,1.20
2018-12-31T05:50:45.264Z,1.47
2018-12-31T05:53:12.525Z,1.17
2018-12-31T05:55:39.707Z,1.40
2018-12-31T05:58:06.916Z,1.40
2018-12-31T06:00:35.437Z,1.37
2018-12-31T06:03:02.628Z,1.80
2018-12-31T06:05:29.983Z,1.30
2018-12-31T06:07:57.206Z,2.10
2018-12-31T06:10:24.444Z,1.37
2018-12-31T06:12:51.627Z,1.60
2018-12-31T06:15:18.827Z,2.23
2018-12-31T06:17:46.035Z,1.87
2018-12-31T06:20:13.233Z,1.80
2018-12-31T06:22:40.437Z,2.00
2018-12-31T06:25:07.673Z,1.20
2018-12-31T06:27:34.872Z,1.33
2018-12-31T06:30:02.503Z,1.63
2018-12-31T06:32:29.879Z,1.83
2018-12-31T06:34:57.186Z,1.40
2018-12-31T06:37:24.408Z,1.00
2018-12-31T06:39:51.595Z,1.10
2018-12-31T06:42:18.853Z,1.20
2018-12-31T06:44:46.068Z,1.80
2018-12-31T06:47:13.275Z,1.47
2018-12-31T06:49:40.483Z,1.17
2018-12-31T06:52:07.717Z,1.03
2018-12-31T06:54:34.988Z,1.30
2018-12-31T06:57:02.175Z,1.30
2018-12-31T06:59:29.367Z,2.60
2018-12-31T07:01:56.564Z,1.20
2018-12-31T07:04:23.837Z,1.40
2018-12-31T07:06:51.011Z,2.10
2018-12-31T07:09:18.212Z,1.30
2018-12-31T07:11:45.445Z,1.40
2018-12-31T07:14:12.629Z,2.03
2018-12-31T07:16:39.852Z,1.43
2018-12-31T07:19:07.012Z,1.17
2018-12-31T07:21:34.325Z,1.30
2018-12-31T07:24:01.535Z,1.70
2018-12-31T07:26:28.730Z,1.43
2018-12-31T07:28:55.940Z,2.23
2018-12-31T07:31:23.131Z,1.30
2018-12-31T07:33:50.368Z,1.30
2018-12-31T07:36:17.552Z,1.40
2018-12-31T07:38:44.734Z,1.30
2018-12-31T07:41:11.942Z,1.00
2018-12-31T07:43:39.161Z,1.23
2018-12-31T07:46:06.296Z,1.47
2018-12-31T07:48:33.485Z,1.40
2018-12-31T07:51:00.839Z,1.37
2018-12-31T07:53:28.027Z,2.80
2018-12-31T07:55:55.246Z,1.30
2018-12-31T07:58:22.445Z,1.30
2018-12-31T08:00:49.761Z,1.50
2018-12-31T08:03:16.965Z,1.83
2018-12-31T08:05:44.155Z,1.50
2018-12-31T08:08:11.372Z,1.50
2018-12-31T08:10:38.543Z,1.40
2018-12-31T08:13:05.784Z,1.57
2018-12-31T08:15:32.972Z,1.97
2018-12-31T08:18:00.158Z,1.80
2018-12-31T08:20:27.425Z,1.40
2018-12-31T08:22:54.652Z,1.93
2018-12-31T08:25:21.845Z,1.20
2018-12-31T08:27:49.025Z,1.07
2018-12-31T08:30:16.347Z,1.20
2018-12-31T08:32:43.501Z,1.30
2018-12-31T08:35:10.721Z,1.77
2018-12-31T08:37:38.002Z,2.00
2018-12-31T08:40:05.207Z,1.53
2018-12-31T08:42:32.578Z,1.40
2018-12-31T08:44:59.755Z,1.40
2018-12-31T08:47:26.894Z,1.47
2018-12-31T08:49:54.168Z,1.30
2018-12-31T08:52:21.373Z,1.30
2018-12-31T08:54:48.659Z,1.80
2018-12-31T08:57:15.838Z,1.33
2018-12-31T08:59:43.019Z,1.50
2018-12-31T09:02:10.225Z,1.73
2018-12-31T09:04:37.465Z,1.47
2018-12-31T09:07:04.665Z,1.60
2018-12-31T09:09:31.857Z,1.17
2018-12-31T09:11:59.080Z,1.60
2018-12-31T09:14:26.250Z,1.27
2018-12-31T09:16:53.465Z,1.33
2018-12-31T09:19:20.673Z,1.53
2018-12-31T09:21:47.941Z,1.50
2018-12-31T09:24:15.068Z,1.20
2018-12-31T09:26:42.257Z,1.47
2018-12-31T09:29:09.498Z,1.70
2018-12-31T09:31:36.773Z,1.40
2018-12-31T09:34:04.038Z,1.77
2018-12-31T09:36:31.209Z,1.47
2018-12-31T09:38:58.409Z,1.20
2018-12-31T09:41:25.608Z,1.63
2018-12-31T09:43:52.831Z,1.70
2018-12-31T09:46:20.016Z,2.50
2018-12-31T09:48:47.333Z,1.67
2018-12-31T09:51:14.502Z,1.53
2018-12-31T09:53:41.701Z,1.67
2018-12-31T09:56:08.908Z,1.60
2018-12-31T09:58:36.439Z,1.10
2018-12-31T10:01:05.225Z,1.37
2018-12-31T10:03:32.407Z,1.10
2018-12-31T10:05:59.631Z,1.83
2018-12-31T10:08:26.842Z,1.40
2018-12-31T10:10:54.041Z,1.43
2018-12-31T10:13:21.228Z,1.40
2018-12-31T10:15:48.381Z,1.20
2018-12-31T10:18:15.608Z,1.90
2018-12-31T10:20:42.797Z,1.37
2018-12-31T10:23:09.996Z,1.67
2018-12-31T10:25:37.227Z,1.80
2018-12-31T10:28:04.419Z,2.03
2018-12-31T10:30:31.680Z,1.40
2018-12-31T10:32:58.887Z,1.47
2018-12-31T10:35:26.084Z,1.40
2018-12-31T10:37:53.285Z,1.77
2018-12-31T10:40:20.619Z,1.33
2018-12-31T10:42:47.860Z,4.00
2018-12-31T10:45:15.023Z,1.90
2018-12-31T10:47:42.265Z,1.43
2018-12-31T10:50:09.475Z,1.37
2018-12-31T10:52:36.653Z,1.73
2018-12-31T10:55:04.333Z,1.33
2018-12-31T10:57:31.509Z,1.57
2018-12-31T10:59:58.715Z,1.60
2018-12-31T11:02:25.904Z,1.10
2018-12-31T11:04:53.083Z,1.33
2018-12-31T11:07:20.317Z,1.60
2018-12-31T11:09:47.550Z,1.40
2018-12-31T11:12:14.803Z,1.20
2018-12-31T11:14:41.982Z,1.93
2018-12-31T11:17:09.189Z,1.50
2018-12-31T11:19:36.426Z,1.60
2018-12-31T11:22:03.604Z,1.97
2018-12-31T11:24:30.825Z,2.10
2018-12-31T11:26:58.030Z,1.90
2018-12-31T11:29:25.251Z,1.37
2018-12-31T11:31:52.418Z,1.70
2018-12-31T11:34:19.698Z,1.50
2018-12-31T11:36:46.907Z,1.90
2018-12-31T11:39:14.076Z,1.50
2018-12-31T11:41:41.410Z,2.07
2018-12-31T11:44:08.599Z,1.10
2018-12-31T11:46:35.769Z,1.47
2018-12-31T11:49:03.005Z,1.20
2018-12-31T11:51:30.135Z,1.93
2018-12-31T11:53:57.328Z,2.03
2018-12-31T11:56:24.527Z,2.30
2018-12-31T11:58:51.760Z,1.73
2018-12-31T12:01:19.304Z,2.60
2018-12-31T12:03:46.466Z,2.70
2018-12-31T12:06:13.689Z,1.90
2018-12-31T12:08:40.859Z,2.87
2018-12-31T12:11:08.101Z,2.10
2018-12-31T12:13:35.307Z,1.50
2018-12-31T12:16:02.473Z,3.33
2018-12-31T12:18:29.702Z,2.27
2018-12-31T12:20:56.963Z,2.57
2018-12-31T12:23:24.179Z,3.43
2018-12-31T12:25:53.272Z,3.00
2018-12-31T12:28:20.641Z,3.03
2018-12-31T12:30:47.828Z,2.00
2018-12-31T12:33:14.992Z,2.77
2018-12-31T12:35:42.303Z,2.30
2018-12-31T12:38:09.496Z,2.90
2018-12-31T12:40:36.712Z,2.90
2018-12-31T12:43:03.937Z,3.57
2018-12-31T12:45:31.118Z,2.80
2018-12-31T12:47:58.354Z,3.57
2018-12-31T12:50:25.569Z,2.30
2018-12-31T12:52:52.777Z,7.43
2018-12-31T12:55:20.008Z,5.90
2018-12-31T12:57:47.231Z,2.33
2018-12-31T13:00:14.425Z,3.23
2018-12-31T13:02:41.660Z,3.13
2018-12-31T13:05:08.919Z,2.73
2018-12-31T13:07:37.984Z,4.30
2018-12-31T13:10:05.433Z,2.20
2018-12-31T13:12:32.637Z,4.03
2018-12-31T13:14:59.894Z,4.10
2018-12-31T13:17:27.067Z,3.50
2018-12-31T13:19:54.309Z,3.37
2018-12-31T13:22:21.525Z,2.70
2018-12-31T13:24:48.720Z,2.80
2018-12-31T13:27:15.928Z,2.50
2018-12-31T13:29:43.111Z,8.77
2018-12-31T13:32:10.364Z,3.90
2018-12-31T13:34:37.647Z,3.40
2018-12-31T13:37:04.964Z,4.03
2018-12-31T13:39:32.133Z,5.10
2018-12-31T13:41:59.337Z,7.87
2018-12-31T13:44:26.649Z,5.70
2018-12-31T13:46:53.793Z,3.37
2018-12-31T13:49:22.917Z,1.60
2018-12-31T13:51:50.094Z,5.37
2018-12-31T13:54:17.254Z,2.90
2018-12-31T13:56:45.106Z,3.43
2018-12-31T13:59:13.555Z,4.30
2018-12-31T14:01:40.807Z,5.63
2018-12-31T14:04:08.032Z,3.97
2018-12-31T14:06:35.247Z,5.40
2018-12-31T14:11:57.632Z,3.97
2018-12-31T14:14:24.802Z,5.23
2018-12-31T14:16:51.985Z,6.23
2018-12-31T14:19:19.193Z,4.87
2018-12-31T14:21:46.396Z,6.40
2018-12-31T14:24:13.654Z,7.53
2018-12-31T14:26:40.856Z,4.73
2018-12-31T14:29:08.022Z,2.73
2018-12-31T14:31:35.228Z,4.03
2018-12-31T14:34:02.424Z,5.90
2018-12-31T14:36:32.041Z,3.60
2018-12-31T14:39:01.148Z,6.20
2018-12-31T14:41:28.378Z,3.40
2018-12-31T14:43:55.612Z,4.50
2018-12-31T14:46:23.089Z,2.60
2018-12-31T14:48:51.887Z,4.27
2018-12-31T14:51:19.101Z,4.20
2018-12-31T14:53:46.275Z,4.40
2018-12-31T14:56:13.485Z,5.80
2018-12-31T14:58:40.710Z,3.73
2018-12-31T15:01:07.916Z,3.63
2018-12-31T15:03:35.104Z,4.70
2018-12-31T15:06:04.181Z,4.90
2018-12-31T15:08:31.431Z,5.80
2018-12-31T15:10:58.583Z,4.90
2018-12-31T15:13:25.772Z,2.97
2018-12-31T15:15:52.990Z,3.97
2018-12-31T15:18:20.492Z,3.23
2018-12-31T15:20:47.735Z,3.20
2018-12-31T15:23:14.914Z,4.63
2018-12-31T15:25:42.119Z,4.20
2018-12-31T15:28:09.303Z,3.37
2018-12-31T15:30:36.646Z,3.30
2018-12-31T15:33:03.843Z,4.67
2018-12-31T15:35:50.465Z,4.83
2018-12-31T15:38:17.664Z,3.80
2018-12-31T15:40:44.893Z,5.03
2018-12-31T15:43:12.134Z,2.27
2018-12-31T15:45:58.817Z,4.90
2018-12-31T15:48:26.009Z,3.70
2018-12-31T15:50:53.185Z,2.40
2018-12-31T15:53:20.469Z,4.67
2018-12-31T15:55:49.602Z,6.73
2018-12-31T15:58:16.807Z,4.40
2018-12-31T16:00:43.989Z,4.90
2018-12-31T16:03:11.222Z,4.70
2018-12-31T16:05:38.410Z,3.57
2018-12-31T16:08:05.645Z,3.43
2018-12-31T16:10:32.804Z,3.27
2018-12-31T16:13:00.009Z,4.17
2018-12-31T16:15:27.224Z,3.73
2018-12-31T16:17:54.573Z,5.00
2018-12-31T16:20:21.811Z,3.50
2018-12-31T16:22:48.990Z,4.33
2018-12-31T16:25:16.317Z,3.97
2018-12-31T16:27:43.476Z,2.63
2018-12-31T16:30:10.670Z,3.77
2018-12-31T16:32:37.883Z,4.20
2018-12-31T16:35:05.110Z,3.80
2018-12-31T16:37:34.204Z,5.53
2018-12-31T16:40:01.453Z,4.20
2018-12-31T16:42:28.684Z,3.23
2018-12-31T16:44:55.917Z,4.47
2018-12-31T16:47:23.109Z,6.30
2018-12-31T16:49:50.328Z,5.83
2018-12-31T16:52:19.410Z,2.87
2018-12-31T16:54:46.751Z,7.23
2018-12-31T16:57:13.926Z,4.27
2018-12-31T16:59:41.167Z,5.03
2018-12-31T17:02:08.356Z,3.73
2018-12-31T17:04:35.550Z,4.37
2018-12-31T17:07:02.772Z,7.43
2018-12-31T17:09:29.951Z,2.80
2018-12-31T17:11:57.168Z,4.47
2018-12-31T17:14:24.382Z,3.20
2018-12-31T17:16:51.562Z,3.60
2018-12-31T17:19:18.792Z,4.23
2018-12-31T17:21:45.990Z,3.73
2018-12-31T17:24:13.161Z,4.90
2018-12-31T17:26:40.357Z,5.23
2018-12-31T17:29:07.575Z,4.23
2018-12-31T17:31:34.732Z,3.77
2018-12-31T17:34:01.978Z,3.37
2018-12-31T17:36:29.178Z,5.43
2018-12-31T17:38:56.410Z,2.67
2018-12-31T17:41:23.617Z,4.13
2018-12-31T17:44:11.970Z,3.20
2018-12-31T17:46:58.825Z,3.27
2018-12-31T17:49:26.102Z,4.00
2018-12-31T17:51:55.812Z,3.13
2018-12-31T17:54:22.540Z,3.57
2018-12-31T17:56:49.711Z,3.57
2018-12-31T17:59:16.905Z,5.13
2018-12-31T18:01:44.217Z,4.23
2018-12-31T18:04:11.394Z,2.60
2018-12-31T18:06:38.625Z,3.03
2018-12-31T18:09:06.682Z,8.80
2018-12-31T18:11:33.914Z,4.33
2018-12-31T18:14:01.255Z,3.37
2018-12-31T18:16:28.436Z,4.70
2018-12-31T18:18:55.614Z,3.83
2018-12-31T18:21:42.270Z,3.90
2018-12-31T18:24:09.456Z,4.90
2018-12-31T18:26:36.694Z,2.90
2018-12-31T18:29:03.898Z,4.50
2018-12-31T18:31:31.092Z,4.33
2018-12-31T18:33:58.285Z,5.10
2018-12-31T18:36:25.497Z,3.87
2018-12-31T18:38:52.699Z,5.97
2018-12-31T18:41:19.916Z,7.30
2018-12-31T18:43:47.156Z,4.70
2018-12-31T18:46:14.338Z,3.90
2018-12-31T18:48:41.749Z,7.00
2018-12-31T18:51:08.906Z,3.50
2018-12-31T18:53:36.085Z,5.80
2018-12-31T18:56:22.822Z,3.80
2018-12-31T18:58:50.003Z,3.40
2018-12-31T19:01:17.280Z,6.27
2018-12-31T19:03:44.492Z,4.63
2018-12-31T19:06:11.669Z,4.13
2018-12-31T19:08:38.915Z,3.53
2018-12-31T19:11:06.074Z,3.17
2018-12-31T19:13:33.254Z,8.73
2018-12-31T19:16:00.478Z,3.33
2018-12-31T19:18:27.723Z,3.50
2018-12-31T19:20:54.995Z,5.60
2018-12-31T19:23:22.196Z,4.43
2018-12-31T19:25:49.404Z,3.10
2018-12-31T19:28:16.841Z,3.07
2018-12-31T19:30:43.977Z,7.80
2018-12-31T19:33:11.176Z,5.10
2018-12-31T19:35:38.360Z,2.90
2018-12-31T19:38:05.573Z,4.53
2018-12-31T19:40:32.801Z,2.20
2018-12-31T19:43:00.006Z,6.50
2018-12-31T19:45:27.233Z,4.03
2018-12-31T19:47:55.756Z,10.30
2018-12-31T19:50:23.671Z,4.93
2018-12-31T19:52:50.890Z,3.83
2018-12-31T19:55:18.076Z,4.43
2018-12-31T19:57:47.216Z,4.60
2018-12-31T20:00:33.845Z,3.90
2018-12-31T20:03:01.103Z,4.83
2018-12-31T20:05:28.325Z,3.97
2018-12-31T20:07:57.441Z,3.97
2018-12-31T20:10:24.683Z,2.33
2018-12-31T20:12:51.881Z,5.10
2018-12-31T20:15:19.083Z,4.13
2018-12-31T20:17:46.449Z,3.13
2018-12-31T20:20:13.657Z,4.27
2018-12-31T20:22:42.769Z,2.70
2018-12-31T20:25:10.077Z,3.73
2018-12-31T20:27:37.303Z,3.67
2018-12-31T20:30:24.004Z,5.27
2018-12-31T20:32:51.216Z,4.23
2018-12-31T20:35:18.403Z,4.07
2018-12-31T20:37:45.616Z,3.63
2018-12-31T20:40:12.792Z,4.37
2018-12-31T20:42:39.986Z,4.17
2018-12-31T20:45:07.169Z,4.17
2018-12-31T20:47:34.479Z,4.03
2018-12-31T20:50:04.202Z,3.80
2018-12-31T20:52:31.365Z,4.07
2018-12-31T20:54:58.618Z,3.07
2018-12-31T20:57:25.785Z,2.43
2018-12-31T20:59:53.073Z,5.70
2018-12-31T21:02:20.348Z,4.00
2018-12-31T21:04:47.763Z,2.13
2018-12-31T21:07:14.966Z,2.90
2018-12-31T21:09:42.209Z,2.47
2018-12-31T21:12:09.369Z,3.47
2018-12-31T21:14:36.608Z,6.00
2018-12-31T21:17:03.801Z,1.77
2018-12-31T21:19:32.972Z,2.77
2018-12-31T21:22:12.233Z,5.97
2018-12-31T21:24:39.465Z,2.83
2018-12-31T21:27:07.371Z,2.50
2018-12-31T21:29:35.776Z,1.70
2018-12-31T21:32:03.117Z,2.97
2018-12-31T21:34:30.331Z,1.83
2018-12-31T21:36:57.550Z,2.70
2018-12-31T21:39:24.732Z,3.60
2018-12-31T21:41:52.046Z,2.30
2018-12-31T21:44:19.228Z,2.50
2018-12-31T21:46:46.608Z,3.10
2018-12-31T21:49:13.822Z,3.80
2018-12-31T21:52:00.447Z,3.97
2018-12-31T21:54:27.693Z,2.90
2018-12-31T21:56:56.765Z,3.70
2018-12-31T21:59:23.928Z,5.07
2018-12-31T22:01:51.144Z,3.50
2018-12-31T22:04:18.426Z,4.30
2018-12-31T22:06:45.619Z,3.37
2018-12-31T22:09:12.834Z,3.70
2018-12-31T22:11:41.947Z,8.90
2018-12-31T22:14:09.138Z,4.33
2018-12-31T22:16:36.329Z,4.67
2018-12-31T22:19:03.604Z,3.80
2018-12-31T22:21:30.850Z,2.60
2018-12-31T22:24:17.514Z,6.10
2018-12-31T22:26:44.699Z,3.90
2018-12-31T22:29:11.884Z,4.37
2018-12-31T22:31:39.104Z,5.13
2018-12-31T22:34:06.334Z,3.40
2018-12-31T22:36:53.119Z,4.77
2018-12-31T22:39:20.410Z,3.47
2018-12-31T22:41:47.664Z,4.90
2018-12-31T22:44:14.905Z,6.03
2018-12-31T22:46:42.178Z,5.23
2018-12-31T22:49:09.476Z,3.77
2018-12-31T22:51:36.752Z,3.50
2018-12-31T22:54:04.036Z,3.40
2018-12-31T22:56:31.266Z,3.40
2018-12-31T22:59:17.957Z,4.17
2018-12-31T23:01:45.186Z,4.27
2018-12-31T23:04:31.797Z,4.60
2018-12-31T23:07:18.475Z,8.13
2018-12-31T23:09:45.678Z,4.40
2018-12-31T23:12:32.377Z,6.07
2018-12-31T23:14:59.812Z,6.57
2018-12-31T23:17:46.682Z,7.90
2018-12-31T23:20:26.059Z,5.93
2018-12-31T23:22:53.413Z,8.13
2018-12-31T23:25:20.598Z,4.90
2018-12-31T23:27:47.807Z,5.33
2018-12-31T23:30:15.045Z,5.10
2018-12-31T23:32:42.261Z,7.37
2018-12-31T23:35:30.243Z,5.00
2018-12-31T23:37:58.141Z,4.87
2018-12-31T23:40:25.347Z,5.53
2018-12-31T23:42:52.551Z,7.20
2018-12-31T23:45:19.790Z,3.63
2018-12-31T23:48:06.467Z,6.00
2018-12-31T23:50:33.684Z,5.00
2018-12-31T23:53:01.036Z,7.17
2018-12-31T23:55:28.315Z,4.87
2018-12-31T23:58:15.074Z,6.77
